Time;durP1;ratioP1;P1;durP2;ratioP2;P2;SDS_P1;SDS_P2;PMS_P1;PMS_P2;Temp;Humidity;BMP_temperature;BMP_pressure;BME280_temperature;BME280_humidity;BME280_pressure;Samples;Min_cycle;Max_cycle;Signal;HPM_P1;HPM_P2
2023/02/10 00:01:12;;;;;;;1.93;1.83;;;;;;;;;;7433925;19;20151;-92
2023/02/10 00:03:39;;;;;;;1.70;1.60;;;;;;;;;;7427441;19;20170;-93
2023/02/10 00:06:07;;;;;;;0.93;0.93;;;;;;;;;;7431666;19;20136;-93
2023/02/10 00:08:34;;;;;;;2.47;1.80;;;;;;;;;;7433430;19;20141;-91
2023/02/10 00:11:06;;;;;;;2.57;2.23;;;;;;;;;;7426065;19;20133;-92
2023/02/10 00:13:35;;;;;;;1.43;1.33;;;;;;;;;;7397601;19;20188;-92
2023/02/10 00:16:04;;;;;;;1.40;1.30;;;;;;;;;;7397463;19;20155;-89
2023/02/10 00:18:31;;;;;;;2.00;1.90;;;;;;;;;;7398542;19;20150;-90
2023/02/10 00:21:15;;;;;;;1.53;1.43;;;;;;;;;;7396508;19;20495;-92
2023/02/10 00:23:43;;;;;;;3.10;2.43;;;;;;;;;;7395763;19;20159;-92
2023/02/10 00:26:12;;;;;;;2.30;2.10;;;;;;;;;;7396610;19;20141;-92
2023/02/10 00:28:38;;;;;;;2.20;2.10;;;;;;;;;;7398144;19;20140;-92
2023/02/10 00:31:06;;;;;;;3.07;2.10;;;;;;;;;;7398255;19;20136;-89
2023/02/10 00:33:33;;;;;;;1.27;1.23;;;;;;;;;;7396812;19;20165;-93
2023/02/10 00:36:04;;;;;;;2.50;2.30;;;;;;;;;;7396218;19;20129;-92
2023/02/10 00:38:30;;;;;;;1.97;1.87;;;;;;;;;;7391770;19;20130;-93
2023/02/10 00:41:05;;;;;;;2.90;2.20;;;;;;;;;;7391623;19;20148;-93
2023/02/10 00:43:32;;;;;;;2.37;2.17;;;;;;;;;;7394153;19;20215;-93
2023/02/10 00:45:59;;;;;;;3.67;3.23;;;;;;;;;;7400296;19;20136;-90
2023/02/10 00:48:25;;;;;;;2.47;2.27;;;;;;;;;;7401129;19;20593;-94
2023/02/10 00:50:52;;;;;;;4.93;2.83;;;;;;;;;;7402904;19;20133;-92
2023/02/10 00:53:18;;;;;;;3.17;1.80;;;;;;;;;;7398034;19;20187;-92
2023/02/10 00:55:46;;;;;;;4.63;3.37;;;;;;;;;;7399634;19;20585;-94
2023/02/10 00:58:13;;;;;;;2.10;2.00;;;;;;;;;;7397814;19;20133;-94
2023/02/10 01:00:39;;;;;;;4.23;3.20;;;;;;;;;;7397298;19;20133;-92
2023/02/10 01:03:06;;;;;;;2.13;1.93;;;;;;;;;;7395637;19;20157;-93
2023/02/10 01:05:33;;;;;;;3.07;1.60;;;;;;;;;;7397449;19;20129;-92
2023/02/10 01:07:59;;;;;;;3.30;2.63;;;;;;;;;;7394763;19;20133;-92
2023/02/10 01:10:26;;;;;;;1.97;1.87;;;;;;;;;;7396163;19;20600;-91
2023/02/10 01:12:53;;;;;;;1.90;1.73;;;;;;;;;;7395764;19;20161;-94
2023/02/10 01:15:20;;;;;;;2.27;2.07;;;;;;;;;;7396160;19;20133;-94
2023/02/10 01:17:47;;;;;;;5.17;4.00;;;;;;;;;;7397321;19;20147;-93
2023/02/10 01:20:14;;;;;;;2.67;1.50;;;;;;;;;;7396725;19;20617;-90
2023/02/10 01:22:40;;;;;;;2.20;1.87;;;;;;;;;;7397196;19;20136;-93
2023/02/10 01:25:07;;;;;;;2.33;1.97;;;;;;;;;;7395752;19;20129;-92
2023/02/10 01:27:33;;;;;;;1.90;1.80;;;;;;;;;;7395506;19;20580;-92
2023/02/10 01:30:01;;;;;;;2.07;1.97;;;;;;;;;;7400674;19;20133;-93
2023/02/10 01:32:27;;;;;;;3.70;2.17;;;;;;;;;;7397000;19;20152;-91
2023/02/10 01:34:54;;;;;;;1.77;1.57;;;;;;;;;;7396972;19;20129;-93
2023/02/10 01:37:21;;;;;;;1.53;1.43;;;;;;;;;;7396010;19;20155;-92
2023/02/10 01:39:47;;;;;;;4.60;1.93;;;;;;;;;;7396646;19;20593;-92
2023/02/10 01:42:15;;;;;;;2.30;2.13;;;;;;;;;;7394414;19;20155;-93
2023/02/10 01:44:41;;;;;;;2.13;1.77;;;;;;;;;;7390070;19;20178;-94
2023/02/10 01:47:09;;;;;;;4.67;2.07;;;;;;;;;;7392729;19;20133;-94
2023/02/10 01:49:40;;;;;;;2.73;1.43;;;;;;;;;;7396390;19;20133;-94
2023/02/10 01:52:12;;;;;;;1.70;1.57;;;;;;;;;;7398105;19;20137;-93
2023/02/10 01:54:42;;;;;;;4.07;2.47;;;;;;;;;;7394126;19;20180;-91
2023/02/10 01:57:08;;;;;;;3.03;2.33;;;;;;;;;;7396218;19;20137;-93
2023/02/10 01:59:37;;;;;;;2.00;1.90;;;;;;;;;;7397444;19;20129;-93
2023/02/10 02:02:06;;;;;;;1.73;1.63;;;;;;;;;;7395661;19;20143;-91
2023/02/10 02:04:47;;;;;;;2.17;2.07;;;;;;;;;;7395277;19;20628;-92
2023/02/10 02:07:14;;;;;;;2.50;2.07;;;;;;;;;;7396100;19;20129;-92
2023/02/10 02:09:41;;;;;;;2.20;2.10;;;;;;;;;;7396199;19;20137;-94
2023/02/10 02:12:21;;;;;;;8.33;2.60;;;;;;;;;;7396536;19;20151;-93
2023/02/10 02:14:58;;;;;;;4.20;2.77;;;;;;;;;;7393812;19;20156;-93
2023/02/10 02:17:37;;;;;;;2.60;2.40;;;;;;;;;;7392713;19;20132;-94
2023/02/10 02:23:25;;;;;;;5.00;2.20;;;;;;;;;;7397390;19;20156;-93
2023/02/10 02:26:13;;;;;;;2.67;2.47;;;;;;;;;;7397393;19;20129;-95
2023/02/10 02:28:57;;;;;;;2.47;1.43;;;;;;;;;;7397068;19;20129;-93
2023/02/10 02:31:48;;;;;;;1.93;1.80;;;;;;;;;;7395251;19;20159;-95
2023/02/10 02:34:34;;;;;;;5.20;2.10;;;;;;;;;;7396064;19;20183;-95
2023/02/10 02:37:10;;;;;;;1.93;1.83;;;;;;;;;;7418965;19;20133;-94
2023/02/10 02:39:37;;;;;;;2.60;1.73;;;;;;;;;;7420513;19;20151;-95
2023/02/10 02:42:09;;;;;;;2.47;2.00;;;;;;;;;;7404303;19;20137;-93
2023/02/10 02:44:36;;;;;;;2.03;1.87;;;;;;;;;;7394498;19;20466;-92
2023/02/10 02:47:14;;;;;;;2.57;2.10;;;;;;;;;;7391555;19;20141;-93
2023/02/10 02:49:59;;;;;;;2.47;2.37;;;;;;;;;;7396859;19;20213;-94
2023/02/10 02:52:39;;;;;;;5.90;1.77;;;;;;;;;;7397989;19;20490;-91
2023/02/10 02:55:20;;;;;;;1.70;1.60;;;;;;;;;;7397848;19;20129;-94
2023/02/10 02:57:51;;;;;;;1.93;1.73;;;;;;;;;;7406607;19;20125;-94
2023/02/10 03:00:22;;;;;;;2.80;1.43;;;;;;;;;;7423086;19;20129;-94
2023/02/10 03:02:49;;;;;;;2.47;2.20;;;;;;;;;;7422792;19;20150;-95
2023/02/10 03:05:21;;;;;;;2.63;1.83;;;;;;;;;;7411183;19;20126;-92
2023/02/10 03:07:47;;;;;;;3.20;1.63;;;;;;;;;;7397551;19;20160;-92
2023/02/10 03:10:14;;;;;;;1.50;1.37;;;;;;;;;;7403289;19;20133;-91
2023/02/10 03:12:48;;;;;;;1.27;1.23;;;;;;;;;;7399137;19;20469;-90
2023/02/10 03:15:15;;;;;;;1.30;1.20;;;;;;;;;;7398651;19;20616;-90
2023/02/10 03:17:42;;;;;;;1.93;1.50;;;;;;;;;;7402900;19;20593;-94
2023/02/10 03:20:09;;;;;;;1.87;1.23;;;;;;;;;;7403270;19;20128;-90
2023/02/10 03:22:36;;;;;;;1.30;1.27;;;;;;;;;;7405664;19;20160;-89
2023/02/10 03:25:02;;;;;;;2.43;2.13;;;;;;;;;;7406090;19;20133;-92
2023/02/10 03:27:29;;;;;;;1.20;1.10;;;;;;;;;;7404581;19;20137;-92
2023/02/10 03:29:56;;;;;;;0.97;0.90;;;;;;;;;;7405118;19;20133;-93
2023/02/10 03:32:22;;;;;;;13.87;1.63;;;;;;;;;;7405646;19;20177;-94
2023/02/10 03:34:49;;;;;;;1.20;1.17;;;;;;;;;;7402834;19;20734;-94
2023/02/10 03:37:16;;;;;;;1.13;1.03;;;;;;;;;;7405759;19;20136;-94
2023/02/10 03:39:42;;;;;;;1.77;1.67;;;;;;;;;;7405189;19;20130;-91
2023/02/10 03:42:09;;;;;;;1.17;1.17;;;;;;;;;;7404944;19;20137;-93
2023/02/10 03:44:36;;;;;;;0.90;0.90;;;;;;;;;;7404019;19;20180;-93
2023/02/10 03:47:03;;;;;;;2.50;1.97;;;;;;;;;;7405160;19;20133;-91
2023/02/10 03:49:30;;;;;;;1.23;1.20;;;;;;;;;;7404741;19;20129;-92
2023/02/10 03:51:56;;;;;;;2.20;1.80;;;;;;;;;;7404778;19;20501;-92
2023/02/10 03:54:23;;;;;;;1.37;1.27;;;;;;;;;;7403051;19;20159;-88
2023/02/10 03:56:50;;;;;;;1.43;1.33;;;;;;;;;;7405277;19;20129;-94
2023/02/10 03:59:16;;;;;;;2.83;1.70;;;;;;;;;;7405456;19;20156;-92
2023/02/10 04:01:43;;;;;;;1.50;1.40;;;;;;;;;;7404925;19;20133;-91
2023/02/10 04:04:10;;;;;;;2.33;0.93;;;;;;;;;;7402627;19;20621;-93
2023/02/10 04:06:36;;;;;;;1.53;1.43;;;;;;;;;;7405265;19;20141;-91
2023/02/10 04:09:03;;;;;;;1.07;1.07;;;;;;;;;;7402367;19;20129;-92
2023/02/10 04:11:29;;;;;;;1.33;1.13;;;;;;;;;;7405444;19;20133;-92
2023/02/10 04:13:56;;;;;;;1.07;1.07;;;;;;;;;;7402878;19;20533;-91
2023/02/10 04:16:27;;;;;;;3.03;1.33;;;;;;;;;;7404283;19;20143;-94
2023/02/10 04:18:54;;;;;;;1.50;1.40;;;;;;;;;;7402577;19;20163;-90
2023/02/10 04:21:20;;;;;;;1.03;1.03;;;;;;;;;;7403567;19;20133;-94
2023/02/10 04:23:47;;;;;;;1.40;1.30;;;;;;;;;;7404003;19;20143;-93
2023/02/10 04:26:14;;;;;;;1.00;0.90;;;;;;;;;;7406219;19;20132;-93
2023/02/10 04:28:40;;;;;;;1.40;1.30;;;;;;;;;;7403375;19;20152;-93
2023/02/10 04:31:07;;;;;;;1.43;1.40;;;;;;;;;;7407154;19;20488;-93
2023/02/10 04:33:34;;;;;;;1.90;1.80;;;;;;;;;;7405196;19;20166;-91
2023/02/10 04:36:02;;;;;;;1.57;1.47;;;;;;;;;;7403713;19;20159;-92
2023/02/10 04:38:29;;;;;;;0.77;0.77;;;;;;;;;;7403847;19;20129;-93
2023/02/10 04:40:56;;;;;;;1.00;1.00;;;;;;;;;;7406821;19;20147;-93
2023/02/10 04:43:22;;;;;;;1.30;1.20;;;;;;;;;;7407129;19;20149;-92
2023/02/10 04:45:50;;;;;;;1.23;1.23;;;;;;;;;;7406707;19;20470;-91
2023/02/10 04:48:16;;;;;;;1.20;1.20;;;;;;;;;;7404903;19;20148;-89
2023/02/10 04:50:43;;;;;;;1.30;1.13;;;;;;;;;;7403662;19;20129;-90
2023/02/10 04:53:10;;;;;;;1.10;0.97;;;;;;;;;;7401388;19;20164;-90
2023/02/10 04:55:37;;;;;;;1.13;1.13;;;;;;;;;;7400579;19;20163;-90
2023/02/10 04:58:03;;;;;;;1.70;1.60;;;;;;;;;;7404179;19;20133;-90
2023/02/10 05:00:30;;;;;;;1.93;1.80;;;;;;;;;;7405804;19;20550;-95
2023/02/10 05:02:57;;;;;;;1.67;1.37;;;;;;;;;;7405298;19;20196;-93
2023/02/10 05:05:25;;;;;;;2.63;1.97;;;;;;;;;;7404436;19;20133;-90
2023/02/10 05:07:52;;;;;;;1.60;1.50;;;;;;;;;;7402468;19;20500;-90
2023/02/10 05:10:19;;;;;;;1.67;1.57;;;;;;;;;;7403857;19;20625;-90
2023/02/10 05:12:45;;;;;;;1.43;1.07;;;;;;;;;;7404367;19;20133;-92
2023/02/10 05:15:13;;;;;;;0.93;0.93;;;;;;;;;;7406166;19;20625;-90
2023/02/10 05:17:40;;;;;;;3.93;1.50;;;;;;;;;;7403244;19;20129;-94
2023/02/10 05:20:07;;;;;;;1.60;1.50;;;;;;;;;;7404234;19;20129;-90
2023/02/10 05:22:38;;;;;;;2.63;2.13;;;;;;;;;;7405054;19;20141;-93
2023/02/10 05:25:05;;;;;;;1.97;1.83;;;;;;;;;;7404857;19;20133;-93
2023/02/10 05:27:32;;;;;;;3.53;2.07;;;;;;;;;;7404649;19;20501;-93
2023/02/10 05:29:59;;;;;;;0.80;0.80;;;;;;;;;;7404405;19;20132;-91
2023/02/10 05:32:25;;;;;;;1.03;1.03;;;;;;;;;;7407701;19;20133;-91
2023/02/10 05:34:52;;;;;;;1.53;1.43;;;;;;;;;;7405490;19;20153;-91
2023/02/10 05:37:19;;;;;;;0.83;0.83;;;;;;;;;;7405670;19;20117;-92
2023/02/10 05:39:45;;;;;;;3.40;2.40;;;;;;;;;;7403535;19;20167;-92
2023/02/10 05:42:12;;;;;;;1.10;1.10;;;;;;;;;;7403694;19;20133;-94
2023/02/10 05:44:38;;;;;;;1.87;1.77;;;;;;;;;;7399776;19;20137;-90
2023/02/10 05:47:05;;;;;;;2.57;2.10;;;;;;;;;;7402537;19;20152;-89
2023/02/10 05:49:32;;;;;;;1.83;1.13;;;;;;;;;;7401457;19;20132;-93
2023/02/10 05:51:58;;;;;;;2.43;2.23;;;;;;;;;;7402610;19;20489;-90
2023/02/10 05:54:25;;;;;;;1.60;1.53;;;;;;;;;;7401169;19;20137;-91
2023/02/10 05:56:51;;;;;;;1.80;1.70;;;;;;;;;;7400759;19;20125;-91
2023/02/10 05:59:18;;;;;;;1.43;1.40;;;;;;;;;;7402315;19;20152;-92
2023/02/10 06:01:45;;;;;;;2.17;1.97;;;;;;;;;;7402764;19;20593;-92
2023/02/10 06:04:11;;;;;;;1.43;1.33;;;;;;;;;;7399663;19;20157;-92
2023/02/10 06:06:38;;;;;;;2.27;1.97;;;;;;;;;;7401332;19;20151;-89
2023/02/10 06:09:05;;;;;;;1.63;1.53;;;;;;;;;;7401403;19;20293;-96
2023/02/10 06:11:31;;;;;;;5.17;2.33;;;;;;;;;;7397918;19;20589;-91
2023/02/10 06:13:58;;;;;;;2.10;1.47;;;;;;;;;;7396651;19;20153;-94
2023/02/10 06:16:25;;;;;;;3.30;1.90;;;;;;;;;;7401042;19;20125;-93
2023/02/10 06:18:51;;;;;;;1.80;1.67;;;;;;;;;;7401398;19;20177;-94
2023/02/10 06:21:19;;;;;;;1.07;1.07;;;;;;;;;;7400914;19;20132;-93
2023/02/10 06:23:45;;;;;;;0.70;0.70;;;;;;;;;;7401344;19;20160;-92
2023/02/10 06:26:12;;;;;;;0.93;0.77;;;;;;;;;;7400390;19;20132;-89
2023/02/10 06:28:38;;;;;;;1.50;1.40;;;;;;;;;;7400063;19;20129;-92
2023/02/10 06:31:07;;;;;;;2.30;2.10;;;;;;;;;;7406799;19;20156;-93
2023/02/10 06:33:35;;;;;;;3.70;1.93;;;;;;;;;;7416087;19;20167;-93
2023/02/10 06:36:04;;;;;;;4.00;1.60;;;;;;;;;;7421338;19;20144;-94
2023/02/10 06:38:35;;;;;;;1.70;1.60;;;;;;;;;;7424126;19;20133;-92
2023/02/10 06:41:02;;;;;;;1.30;1.27;;;;;;;;;;7423010;19;20141;-94
2023/02/10 06:43:29;;;;;;;1.67;1.57;;;;;;;;;;7422859;19;20153;-93
2023/02/10 06:45:56;;;;;;;4.57;1.93;;;;;;;;;;7425213;19;20126;-93
2023/02/10 06:48:24;;;;;;;2.23;2.03;;;;;;;;;;7422536;19;20137;-93
2023/02/10 06:50:50;;;;;;;0.60;0.60;;;;;;;;;;7419707;19;20137;-93
2023/02/10 06:53:17;;;;;;;1.97;1.37;;;;;;;;;;7421340;19;20175;-96
2023/02/10 06:55:44;;;;;;;2.87;1.70;;;;;;;;;;7423243;19;20150;-94
2023/02/10 06:58:11;;;;;;;0.90;0.90;;;;;;;;;;7430787;19;20133;-96
2023/02/10 07:00:38;;;;;;;3.63;2.10;;;;;;;;;;7423623;19;20151;-96
2023/02/10 07:03:06;;;;;;;1.83;1.73;;;;;;;;;;7408305;19;20156;-92
2023/02/10 07:05:35;;;;;;;3.00;1.10;;;;;;;;;;7406060;19;20141;-91
2023/02/10 07:08:03;;;;;;;1.40;1.30;;;;;;;;;;7405062;19;20137;-94
2023/02/10 07:10:32;;;;;;;2.17;1.57;;;;;;;;;;7406464;19;20125;-92
2023/02/10 07:12:58;;;;;;;4.37;1.87;;;;;;;;;;7411575;19;20195;-93
2023/02/10 07:15:25;;;;;;;2.07;1.87;;;;;;;;;;7414592;19;20137;-94
2023/02/10 07:17:52;;;;;;;1.63;1.53;;;;;;;;;;7415339;19;20153;-93
2023/02/10 07:20:19;;;;;;;2.73;2.37;;;;;;;;;;7415829;19;20155;-92
2023/02/10 07:22:46;;;;;;;1.20;1.10;;;;;;;;;;7413360;19;20159;-94
2023/02/10 07:25:12;;;;;;;1.93;1.73;;;;;;;;;;7405369;19;20133;-93
2023/02/10 07:27:39;;;;;;;1.70;1.47;;;;;;;;;;7416575;19;20155;-95
2023/02/10 07:30:06;;;;;;;0.77;0.70;;;;;;;;;;7431206;19;20448;-95
2023/02/10 07:32:32;;;;;;;4.60;2.17;;;;;;;;;;7430761;19;20163;-95
2023/02/10 07:34:59;;;;;;;2.17;2.00;;;;;;;;;;7419299;19;20132;-93
2023/02/10 07:37:26;;;;;;;0.70;0.70;;;;;;;;;;7406153;19;20133;-93
2023/02/10 07:39:52;;;;;;;1.43;1.27;;;;;;;;;;7406856;19;20168;-92
2023/02/10 07:42:19;;;;;;;2.13;1.73;;;;;;;;;;7406381;19;20137;-94
2023/02/10 07:44:46;;;;;;;1.27;1.27;;;;;;;;;;7402226;19;20153;-94
2023/02/10 07:47:12;;;;;;;0.63;0.50;;;;;;;;;;7406930;19;20152;-92
2023/02/10 07:49:39;;;;;;;2.27;1.40;;;;;;;;;;7404067;19;20145;-93
2023/02/10 07:52:05;;;;;;;4.13;1.80;;;;;;;;;;7423849;19;20137;-96
2023/02/10 07:54:32;;;;;;;3.77;1.47;;;;;;;;;;7426083;19;20157;-95
2023/02/10 07:56:59;;;;;;;1.63;1.53;;;;;;;;;;7425971;19;20137;-91
